sensor_id;sensor_type;location;lat;lon;timestamp;temperature;humidity
67572;SHT31;54397;47.506;19.158;2022-07-06T00:03:11;21.27;71.26
67572;SHT31;54397;47.506;19.158;2022-07-06T00:06:33;20.63;72.97
67572;SHT31;54397;47.506;19.158;2022-07-06T00:09:54;21.05;73.10
67572;SHT31;54397;47.506;19.158;2022-07-06T00:13:16;21.22;72.49
67572;SHT31;54397;47.506;19.158;2022-07-06T00:16:37;20.92;71.32
67572;SHT31;54397;47.506;19.158;2022-07-06T00:20:02;21.20;71.05
67572;SHT31;54397;47.506;19.158;2022-07-06T00:23:24;21.65;70.79
67572;SHT31;54397;47.506;19.158;2022-07-06T00:26:48;21.70;69.22
67572;SHT31;54397;47.506;19.158;2022-07-06T00:30:12;22.11;69.36
67572;SHT31;54397;47.506;19.158;2022-07-06T00:33:34;21.81;67.31
67572;SHT31;54397;47.506;19.158;2022-07-06T00:36:56;21.83;69.33
67572;SHT31;54397;47.506;19.158;2022-07-06T00:40:21;21.88;68.26
67572;SHT31;54397;47.506;19.158;2022-07-06T00:43:56;22.09;68.00
67572;SHT31;54397;47.506;19.158;2022-07-06T00:47:17;21.68;69.02
67572;SHT31;54397;47.506;19.158;2022-07-06T00:50:39;21.47;68.55
67572;SHT31;54397;47.506;19.158;2022-07-06T00:54:03;21.87;68.24
67572;SHT31;54397;47.506;19.158;2022-07-06T00:57:24;21.30;69.09
67572;SHT31;54397;47.506;19.158;2022-07-06T01:00:49;20.89;70.37
67572;SHT31;54397;47.506;19.158;2022-07-06T01:04:13;21.08;70.58
67572;SHT31;54397;47.506;19.158;2022-07-06T01:07:39;21.30;69.74
67572;SHT31;54397;47.506;19.158;2022-07-06T01:11:01;21.77;69.15
67572;SHT31;54397;47.506;19.158;2022-07-06T01:14:24;21.94;66.93
67572;SHT31;54397;47.506;19.158;2022-07-06T01:17:48;21.61;67.83
67572;SHT31;54397;47.506;19.158;2022-07-06T01:21:12;21.65;68.18
67572;SHT31;54397;47.506;19.158;2022-07-06T01:24:36;21.63;68.06
67572;SHT31;54397;47.506;19.158;2022-07-06T01:28:01;21.50;69.07
67572;SHT31;54397;47.506;19.158;2022-07-06T01:31:26;21.10;69.86
67572;SHT31;54397;47.506;19.158;2022-07-06T01:34:48;21.12;69.99
67572;SHT31;54397;47.506;19.158;2022-07-06T01:38:11;21.39;69.44
67572;SHT31;54397;47.506;19.158;2022-07-06T01:41:33;21.20;68.92
67572;SHT31;54397;47.506;19.158;2022-07-06T01:44:57;20.96;70.74
67572;SHT31;54397;47.506;19.158;2022-07-06T01:48:19;20.72;70.83
67572;SHT31;54397;47.506;19.158;2022-07-06T01:51:43;20.79;71.12
67572;SHT31;54397;47.506;19.158;2022-07-06T01:55:05;21.26;70.50
67572;SHT31;54397;47.506;19.158;2022-07-06T01:58:29;21.20;69.69
67572;SHT31;54397;47.506;19.158;2022-07-06T02:01:55;21.32;68.76
67572;SHT31;54397;47.506;19.158;2022-07-06T02:05:17;21.32;70.15
67572;SHT31;54397;47.506;19.158;2022-07-06T02:08:39;21.25;69.13
67572;SHT31;54397;47.506;19.158;2022-07-06T02:12:01;21.39;68.66
67572;SHT31;54397;47.506;19.158;2022-07-06T02:15:25;20.99;68.99
67572;SHT31;54397;47.506;19.158;2022-07-06T02:18:46;21.05;69.99
67572;SHT31;54397;47.506;19.158;2022-07-06T02:22:10;21.12;69.39
67572;SHT31;54397;47.506;19.158;2022-07-06T02:25:32;21.49;69.16
67572;SHT31;54397;47.506;19.158;2022-07-06T02:28:53;21.75;68.03
67572;SHT31;54397;47.506;19.158;2022-07-06T02:32:15;21.51;67.42
67572;SHT31;54397;47.506;19.158;2022-07-06T02:35:36;21.36;68.66
67572;SHT31;54397;47.506;19.158;2022-07-06T02:39:06;21.18;68.40
67572;SHT31;54397;47.506;19.158;2022-07-06T02:42:30;21.18;69.46
67572;SHT31;54397;47.506;19.158;2022-07-06T02:45:53;21.42;69.34
67572;SHT31;54397;47.506;19.158;2022-07-06T02:49:15;21.13;69.94
67572;SHT31;54397;47.506;19.158;2022-07-06T02:52:39;21.20;69.45
67572;SHT31;54397;47.506;19.158;2022-07-06T02:56:03;21.42;69.33
67572;SHT31;54397;47.506;19.158;2022-07-06T02:59:29;21.60;67.69
67572;SHT31;54397;47.506;19.158;2022-07-06T03:02:51;21.63;67.29
67572;SHT31;54397;47.506;19.158;2022-07-06T03:06:15;21.71;67.61
67572;SHT31;54397;47.506;19.158;2022-07-06T03:09:37;21.68;67.76
67572;SHT31;54397;47.506;19.158;2022-07-06T03:12:58;21.91;67.11
67572;SHT31;54397;47.506;19.158;2022-07-06T03:16:20;22.11;66.26
67572;SHT31;54397;47.506;19.158;2022-07-06T03:19:44;21.81;66.54
67572;SHT31;54397;47.506;19.158;2022-07-06T03:23:11;21.32;68.92
67572;SHT31;54397;47.506;19.158;2022-07-06T03:26:32;21.37;68.59
67572;SHT31;54397;47.506;19.158;2022-07-06T03:29:57;21.35;69.26
67572;SHT31;54397;47.506;19.158;2022-07-06T03:33:19;21.63;68.38
67572;SHT31;54397;47.506;19.158;2022-07-06T03:36:43;21.80;67.30
67572;SHT31;54397;47.506;19.158;2022-07-06T03:40:08;21.54;68.07
67572;SHT31;54397;47.506;19.158;2022-07-06T03:43:32;21.09;68.14
67572;SHT31;54397;47.506;19.158;2022-07-06T03:46:53;21.19;69.69
67572;SHT31;54397;47.506;19.158;2022-07-06T03:50:17;21.19;69.56
67572;SHT31;54397;47.506;19.158;2022-07-06T03:53:38;21.20;68.98
67572;SHT31;54397;47.506;19.158;2022-07-06T03:57:00;20.87;70.10
67572;SHT31;54397;47.506;19.158;2022-07-06T04:00:22;21.51;68.54
67572;SHT31;54397;47.506;19.158;2022-07-06T04:03:43;21.81;67.45
67572;SHT31;54397;47.506;19.158;2022-07-06T04:07:09;21.85;67.64
67572;SHT31;54397;47.506;19.158;2022-07-06T04:10:34;21.73;66.41
67572;SHT31;54397;47.506;19.158;2022-07-06T04:13:58;21.83;66.42
67572;SHT31;54397;47.506;19.158;2022-07-06T04:17:22;21.98;66.63
67572;SHT31;54397;47.506;19.158;2022-07-06T04:21:02;21.83;66.01
67572;SHT31;54397;47.506;19.158;2022-07-06T04:24:24;21.90;66.49
67572;SHT31;54397;47.506;19.158;2022-07-06T04:27:46;21.88;66.37
67572;SHT31;54397;47.506;19.158;2022-07-06T04:31:08;21.91;65.86
67572;SHT31;54397;47.506;19.158;2022-07-06T04:34:32;21.71;66.75
67572;SHT31;54397;47.506;19.158;2022-07-06T04:37:53;21.51;67.74
67572;SHT31;54397;47.506;19.158;2022-07-06T04:41:15;21.64;67.22
67572;SHT31;54397;47.506;19.158;2022-07-06T04:44:37;21.71;67.88
67572;SHT31;54397;47.506;19.158;2022-07-06T04:47:58;22.01;66.12
67572;SHT31;54397;47.506;19.158;2022-07-06T04:51:24;21.97;66.71
67572;SHT31;54397;47.506;19.158;2022-07-06T04:54:46;22.63;64.78
67572;SHT31;54397;47.506;19.158;2022-07-06T04:58:08;22.79;63.63
67572;SHT31;54397;47.506;19.158;2022-07-06T05:01:32;22.91;63.41
67572;SHT31;54397;47.506;19.158;2022-07-06T05:04:56;22.90;62.84
67572;SHT31;54397;47.506;19.158;2022-07-06T05:08:18;22.98;63.00
67572;SHT31;54397;47.506;19.158;2022-07-06T05:11:48;22.79;64.09
67572;SHT31;54397;47.506;19.158;2022-07-06T05:15:12;23.04;61.73
67572;SHT31;54397;47.506;19.158;2022-07-06T05:18:36;23.01;62.51
67572;SHT31;54397;47.506;19.158;2022-07-06T05:22:00;22.84;63.10
67572;SHT31;54397;47.506;19.158;2022-07-06T05:25:22;23.42;60.79
67572;SHT31;54397;47.506;19.158;2022-07-06T05:28:43;23.66;59.99
67572;SHT31;54397;47.506;19.158;2022-07-06T05:32:05;23.82;59.68
67572;SHT31;54397;47.506;19.158;2022-07-06T05:35:28;23.74;60.82
67572;SHT31;54397;47.506;19.158;2022-07-06T05:39:11;24.04;59.60
67572;SHT31;54397;47.506;19.158;2022-07-06T05:42:34;24.34;58.49
67572;SHT31;54397;47.506;19.158;2022-07-06T05:45:55;24.51;59.30
67572;SHT31;54397;47.506;19.158;2022-07-06T05:49:17;24.52;58.25
67572;SHT31;54397;47.506;19.158;2022-07-06T05:53:01;24.79;57.81
67572;SHT31;54397;47.506;19.158;2022-07-06T05:56:33;24.78;56.61
67572;SHT31;54397;47.506;19.158;2022-07-06T05:59:54;24.75;57.00
67572;SHT31;54397;47.506;19.158;2022-07-06T06:03:18;24.96;56.97
67572;SHT31;54397;47.506;19.158;2022-07-06T06:06:43;24.97;56.72
67572;SHT31;54397;47.506;19.158;2022-07-06T06:10:07;24.99;56.27
67572;SHT31;54397;47.506;19.158;2022-07-06T06:13:31;24.65;57.27
67572;SHT31;54397;47.506;19.158;2022-07-06T06:16:55;24.54;56.82
67572;SHT31;54397;47.506;19.158;2022-07-06T06:20:17;24.80;56.90
67572;SHT31;54397;47.506;19.158;2022-07-06T06:23:41;25.02;56.15
67572;SHT31;54397;47.506;19.158;2022-07-06T06:27:05;25.33;55.67
67572;SHT31;54397;47.506;19.158;2022-07-06T06:30:27;25.12;55.71
67572;SHT31;54397;47.506;19.158;2022-07-06T06:33:51;25.30;56.37
67572;SHT31;54397;47.506;19.158;2022-07-06T06:37:16;25.19;55.68
67572;SHT31;54397;47.506;19.158;2022-07-06T06:40:45;25.27;55.76
67572;SHT31;54397;47.506;19.158;2022-07-06T06:44:09;24.89;57.01
67572;SHT31;54397;47.506;19.158;2022-07-06T06:47:35;24.76;57.19
67572;SHT31;54397;47.506;19.158;2022-07-06T06:50:57;24.93;56.39
67572;SHT31;54397;47.506;19.158;2022-07-06T06:54:21;24.92;56.15
67572;SHT31;54397;47.506;19.158;2022-07-06T06:57:43;25.16;56.40
67572;SHT31;54397;47.506;19.158;2022-07-06T07:01:05;25.02;55.73
67572;SHT31;54397;47.506;19.158;2022-07-06T07:04:31;24.99;56.55
67572;SHT31;54397;47.506;19.158;2022-07-06T07:07:56;25.43;55.46
67572;SHT31;54397;47.506;19.158;2022-07-06T07:11:27;25.70;55.31
67572;SHT31;54397;47.506;19.158;2022-07-06T07:14:49;26.22;53.93
67572;SHT31;54397;47.506;19.158;2022-07-06T07:18:13;26.54;53.20
67572;SHT31;54397;47.506;19.158;2022-07-06T07:21:36;26.02;53.16
67572;SHT31;54397;47.506;19.158;2022-07-06T07:24:58;25.86;53.73
67572;SHT31;54397;47.506;19.158;2022-07-06T07:28:26;26.16;52.33
67572;SHT31;54397;47.506;19.158;2022-07-06T07:31:50;26.58;52.53
67572;SHT31;54397;47.506;19.158;2022-07-06T07:35:12;26.88;51.00
67572;SHT31;54397;47.506;19.158;2022-07-06T07:38:36;26.84;51.37
67572;SHT31;54397;47.506;19.158;2022-07-06T07:41:58;26.33;50.96
67572;SHT31;54397;47.506;19.158;2022-07-06T07:45:22;26.22;52.18
67572;SHT31;54397;47.506;19.158;2022-07-06T07:48:46;25.88;51.69
67572;SHT31;54397;47.506;19.158;2022-07-06T07:52:07;25.86;53.76
67572;SHT31;54397;47.506;19.158;2022-07-06T07:55:32;26.40;52.11
67572;SHT31;54397;47.506;19.158;2022-07-06T07:59:02;27.06;50.51
67572;SHT31;54397;47.506;19.158;2022-07-06T08:02:26;27.12;48.06
67572;SHT31;54397;47.506;19.158;2022-07-06T08:05:47;27.52;48.62
67572;SHT31;54397;47.506;19.158;2022-07-06T08:09:09;27.74;46.59
67572;SHT31;54397;47.506;19.158;2022-07-06T08:12:33;27.52;47.61
67572;SHT31;54397;47.506;19.158;2022-07-06T08:15:55;27.46;47.81
67572;SHT31;54397;47.506;19.158;2022-07-06T08:19:17;27.74;47.70
67572;SHT31;54397;47.506;19.158;2022-07-06T08:22:42;27.87;46.77
67572;SHT31;54397;47.506;19.158;2022-07-06T08:26:04;27.57;46.64
67572;SHT31;54397;47.506;19.158;2022-07-06T08:29:34;27.64;47.89
67572;SHT31;54397;47.506;19.158;2022-07-06T08:32:55;27.94;47.16
67572;SHT31;54397;47.506;19.158;2022-07-06T08:36:32;28.53;46.18
67572;SHT31;54397;47.506;19.158;2022-07-06T08:39:54;28.34;46.04
67572;SHT31;54397;47.506;19.158;2022-07-06T08:43:18;28.31;45.90
67572;SHT31;54397;47.506;19.158;2022-07-06T08:46:45;27.67;45.92
67572;SHT31;54397;47.506;19.158;2022-07-06T08:50:10;27.54;47.05
67572;SHT31;54397;47.506;19.158;2022-07-06T08:53:34;28.28;45.45
67572;SHT31;54397;47.506;19.158;2022-07-06T08:56:57;28.69;44.46
67572;SHT31;54397;47.506;19.158;2022-07-06T09:00:21;28.89;43.92
67572;SHT31;54397;47.506;19.158;2022-07-06T09:03:46;28.87;44.21
67572;SHT31;54397;47.506;19.158;2022-07-06T09:07:12;28.87;42.62
67572;SHT31;54397;47.506;19.158;2022-07-06T09:10:55;28.79;43.61
67572;SHT31;54397;47.506;19.158;2022-07-06T09:14:19;28.41;43.56
67572;SHT31;54397;47.506;19.158;2022-07-06T09:17:42;28.01;43.74
67572;SHT31;54397;47.506;19.158;2022-07-06T09:21:07;28.17;44.24
67572;SHT31;54397;47.506;19.158;2022-07-06T09:24:41;28.32;42.72
67572;SHT31;54397;47.506;19.158;2022-07-06T09:28:03;29.03;43.43
67572;SHT31;54397;47.506;19.158;2022-07-06T09:31:29;28.53;43.11
67572;SHT31;54397;47.506;19.158;2022-07-06T09:34:55;28.35;44.01
67572;SHT31;54397;47.506;19.158;2022-07-06T09:38:19;29.03;42.41
67572;SHT31;54397;47.506;19.158;2022-07-06T09:41:41;29.30;42.12
67572;SHT31;54397;47.506;19.158;2022-07-06T09:45:03;29.34;41.74
67572;SHT31;54397;47.506;19.158;2022-07-06T09:48:29;29.11;42.45
67572;SHT31;54397;47.506;19.158;2022-07-06T09:52:01;29.21;41.97
67572;SHT31;54397;47.506;19.158;2022-07-06T09:55:34;29.13;42.04
67572;SHT31;54397;47.506;19.158;2022-07-06T09:58:55;28.84;42.16
67572;SHT31;54397;47.506;19.158;2022-07-06T10:02:28;29.24;41.83
67572;SHT31;54397;47.506;19.158;2022-07-06T10:05:55;29.86;40.24
67572;SHT31;54397;47.506;19.158;2022-07-06T10:09:24;30.09;40.97
67572;SHT31;54397;47.506;19.158;2022-07-06T10:12:46;30.23;39.35
67572;SHT31;54397;47.506;19.158;2022-07-06T10:16:10;29.82;39.68
67572;SHT31;54397;47.506;19.158;2022-07-06T10:19:33;29.58;39.37
67572;SHT31;54397;47.506;19.158;2022-07-06T10:22:59;29.75;39.92
67572;SHT31;54397;47.506;19.158;2022-07-06T10:26:23;29.50;40.53
67572;SHT31;54397;47.506;19.158;2022-07-06T10:29:45;29.90;38.20
67572;SHT31;54397;47.506;19.158;2022-07-06T10:33:07;29.54;38.47
67572;SHT31;54397;47.506;19.158;2022-07-06T10:36:29;29.65;39.14
67572;SHT31;54397;47.506;19.158;2022-07-06T10:39:51;30.02;38.99
67572;SHT31;54397;47.506;19.158;2022-07-06T10:43:37;30.28;38.09
67572;SHT31;54397;47.506;19.158;2022-07-06T10:47:01;30.23;36.96
67572;SHT31;54397;47.506;19.158;2022-07-06T10:50:22;29.82;37.92
67572;SHT31;54397;47.506;19.158;2022-07-06T10:53:44;30.24;37.69
67572;SHT31;54397;47.506;19.158;2022-07-06T10:57:10;30.31;37.50
67572;SHT31;54397;47.506;19.158;2022-07-06T11:01:03;30.03;35.83
67572;SHT31;54397;47.506;19.158;2022-07-06T11:04:31;30.30;34.92
67572;SHT31;54397;47.506;19.158;2022-07-06T11:08:00;30.49;34.77
67572;SHT31;54397;47.506;19.158;2022-07-06T11:11:26;30.27;34.19
67572;SHT31;54397;47.506;19.158;2022-07-06T11:14:49;30.27;36.43
67572;SHT31;54397;47.506;19.158;2022-07-06T11:18:21;30.20;34.24
67572;SHT31;54397;47.506;19.158;2022-07-06T11:25:19;30.84;33.26
67572;SHT31;54397;47.506;19.158;2022-07-06T11:28:45;30.55;32.36
67572;SHT31;54397;47.506;19.158;2022-07-06T11:32:09;30.36;32.62
67572;SHT31;54397;47.506;19.158;2022-07-06T11:35:34;29.95;33.24
67572;SHT31;54397;47.506;19.158;2022-07-06T11:39:01;30.20;33.18
67572;SHT31;54397;47.506;19.158;2022-07-06T11:42:23;30.43;34.12
67572;SHT31;54397;47.506;19.158;2022-07-06T11:45:45;30.95;34.29
67572;SHT31;54397;47.506;19.158;2022-07-06T11:49:09;31.25;30.64
67572;SHT31;54397;47.506;19.158;2022-07-06T11:52:33;31.15;31.55
67572;SHT31;54397;47.506;19.158;2022-07-06T11:55:55;30.95;32.04
67572;SHT31;54397;47.506;19.158;2022-07-06T11:59:20;30.88;31.95
67572;SHT31;54397;47.506;19.158;2022-07-06T12:03:00;30.67;30.05
67572;SHT31;54397;47.506;19.158;2022-07-06T12:06:26;30.67;31.46
67572;SHT31;54397;47.506;19.158;2022-07-06T12:09:50;30.64;32.48
67572;SHT31;54397;47.506;19.158;2022-07-06T12:13:14;30.51;31.83
67572;SHT31;54397;47.506;19.158;2022-07-06T12:16:40;30.21;32.73
67572;SHT31;54397;47.506;19.158;2022-07-06T12:20:02;30.21;30.70
67572;SHT31;54397;47.506;19.158;2022-07-06T12:23:41;30.48;30.03
67572;SHT31;54397;47.506;19.158;2022-07-06T12:27:10;30.53;30.78
67572;SHT31;54397;47.506;19.158;2022-07-06T12:30:35;30.49;29.72
67572;SHT31;54397;47.506;19.158;2022-07-06T12:37:54;29.99;30.98
67572;SHT31;54397;47.506;19.158;2022-07-06T12:41:34;30.09;30.98
67572;SHT31;54397;47.506;19.158;2022-07-06T12:44:56;30.23;30.99
67572;SHT31;54397;47.506;19.158;2022-07-06T12:48:22;30.28;30.99
67572;SHT31;54397;47.506;19.158;2022-07-06T12:51:54;30.09;29.73
67572;SHT31;54397;47.506;19.158;2022-07-06T12:55:25;30.10;29.06
67572;SHT31;54397;47.506;19.158;2022-07-06T12:59:00;29.85;29.66
67572;SHT31;54397;47.506;19.158;2022-07-06T13:02:34;29.76;30.01
67572;SHT31;54397;47.506;19.158;2022-07-06T13:06:27;29.80;29.82
67572;SHT31;54397;47.506;19.158;2022-07-06T13:09:50;29.96;30.54
67572;SHT31;54397;47.506;19.158;2022-07-06T13:13:13;30.17;29.99
67572;SHT31;54397;47.506;19.158;2022-07-06T13:16:35;30.31;29.66
67572;SHT31;54397;47.506;19.158;2022-07-06T13:20:02;30.34;29.78
67572;SHT31;54397;47.506;19.158;2022-07-06T13:23:24;30.31;30.09
67572;SHT31;54397;47.506;19.158;2022-07-06T13:26:46;30.03;28.75
67572;SHT31;54397;47.506;19.158;2022-07-06T13:30:08;29.80;30.56
67572;SHT31;54397;47.506;19.158;2022-07-06T13:33:34;29.92;29.80
67572;SHT31;54397;47.506;19.158;2022-07-06T13:36:55;29.90;29.01
67572;SHT31;54397;47.506;19.158;2022-07-06T13:40:17;29.88;29.14
67572;SHT31;54397;47.506;19.158;2022-07-06T13:43:38;30.06;29.20
67572;SHT31;54397;47.506;19.158;2022-07-06T13:47:04;29.98;29.85
67572;SHT31;54397;47.506;19.158;2022-07-06T13:50:26;29.98;30.96
67572;SHT31;54397;47.506;19.158;2022-07-06T13:53:53;30.07;31.39
67572;SHT31;54397;47.506;19.158;2022-07-06T13:57:15;29.86;31.76
67572;SHT31;54397;47.506;19.158;2022-07-06T14:00:39;29.90;31.30
67572;SHT31;54397;47.506;19.158;2022-07-06T14:04:00;29.83;31.13
67572;SHT31;54397;47.506;19.158;2022-07-06T14:07:25;29.75;32.28
67572;SHT31;54397;47.506;19.158;2022-07-06T14:10:50;30.02;31.80
67572;SHT31;54397;47.506;19.158;2022-07-06T14:14:15;30.00;32.35
67572;SHT31;54397;47.506;19.158;2022-07-06T14:17:39;30.09;31.68
67572;SHT31;54397;47.506;19.158;2022-07-06T14:21:01;29.98;30.67
67572;SHT31;54397;47.506;19.158;2022-07-06T14:24:23;29.99;30.92
67572;SHT31;54397;47.506;19.158;2022-07-06T14:27:54;29.79;31.67
67572;SHT31;54397;47.506;19.158;2022-07-06T14:31:16;29.68;31.68
67572;SHT31;54397;47.506;19.158;2022-07-06T14:34:42;29.65;31.52
67572;SHT31;54397;47.506;19.158;2022-07-06T14:38:05;29.68;31.87
67572;SHT31;54397;47.506;19.158;2022-07-06T14:41:27;29.69;31.68
67572;SHT31;54397;47.506;19.158;2022-07-06T14:44:48;29.42;32.08
67572;SHT31;54397;47.506;19.158;2022-07-06T14:48:11;29.41;31.35
67572;SHT31;54397;47.506;19.158;2022-07-06T14:51:32;29.35;31.88
67572;SHT31;54397;47.506;19.158;2022-07-06T14:54:59;29.21;32.13
67572;SHT31;54397;47.506;19.158;2022-07-06T14:58:23;29.21;32.01
67572;SHT31;54397;47.506;19.158;2022-07-06T15:01:44;29.15;31.63
67572;SHT31;54397;47.506;19.158;2022-07-06T15:05:06;29.03;32.07
67572;SHT31;54397;47.506;19.158;2022-07-06T15:08:28;29.02;31.19
67572;SHT31;54397;47.506;19.158;2022-07-06T15:11:50;28.93;31.08
67572;SHT31;54397;47.506;19.158;2022-07-06T15:15:14;28.99;31.05
67572;SHT31;54397;47.506;19.158;2022-07-06T15:19:00;28.89;29.05
67572;SHT31;54397;47.506;19.158;2022-07-06T15:22:22;28.77;29.82
67572;SHT31;54397;47.506;19.158;2022-07-06T15:25:44;28.75;30.20
67572;SHT31;54397;47.506;19.158;2022-07-06T15:29:17;28.73;30.09
67572;SHT31;54397;47.506;19.158;2022-07-06T15:32:48;28.67;30.02
67572;SHT31;54397;47.506;19.158;2022-07-06T15:36:14;28.59;29.96
67572;SHT31;54397;47.506;19.158;2022-07-06T15:39:38;28.31;29.28
67572;SHT31;54397;47.506;19.158;2022-07-06T15:42:59;28.22;29.35
67572;SHT31;54397;47.506;19.158;2022-07-06T15:46:23;28.22;31.02
67572;SHT31;54397;47.506;19.158;2022-07-06T15:49:47;28.17;29.97
67572;SHT31;54397;47.506;19.158;2022-07-06T15:53:17;28.22;30.37
67572;SHT31;54397;47.506;19.158;2022-07-06T15:56:41;28.15;29.95
67572;SHT31;54397;47.506;19.158;2022-07-06T16:00:08;28.18;30.23
67572;SHT31;54397;47.506;19.158;2022-07-06T16:03:30;28.19;30.25
67572;SHT31;54397;47.506;19.158;2022-07-06T16:06:54;28.15;30.63
67572;SHT31;54397;47.506;19.158;2022-07-06T16:10:38;28.17;30.62
67572;SHT31;54397;47.506;19.158;2022-07-06T16:14:03;28.18;31.33
67572;SHT31;54397;47.506;19.158;2022-07-06T16:17:24;28.10;31.12
67572;SHT31;54397;47.506;19.158;2022-07-06T16:20:46;27.96;31.66
67572;SHT31;54397;47.506;19.158;2022-07-06T16:24:08;27.96;31.74
67572;SHT31;54397;47.506;19.158;2022-07-06T16:27:29;27.93;30.80
67572;SHT31;54397;47.506;19.158;2022-07-06T16:30:51;27.60;32.02
67572;SHT31;54397;47.506;19.158;2022-07-06T16:34:13;27.47;32.86
67572;SHT31;54397;47.506;19.158;2022-07-06T16:37:34;27.46;32.34
67572;SHT31;54397;47.506;19.158;2022-07-06T16:40:56;27.38;32.98
67572;SHT31;54397;47.506;19.158;2022-07-06T16:44:18;27.36;33.01
67572;SHT31;54397;47.506;19.158;2022-07-06T16:47:42;27.31;32.24
67572;SHT31;54397;47.506;19.158;2022-07-06T16:51:05;27.35;33.66
67572;SHT31;54397;47.506;19.158;2022-07-06T16:54:27;27.36;33.44
67572;SHT31;54397;47.506;19.158;2022-07-06T16:57:51;27.36;33.34
67572;SHT31;54397;47.506;19.158;2022-07-06T17:01:18;27.33;33.50
67572;SHT31;54397;47.506;19.158;2022-07-06T17:04:45;27.29;32.83
67572;SHT31;54397;47.506;19.158;2022-07-06T17:08:07;27.18;32.41
67572;SHT31;54397;47.506;19.158;2022-07-06T17:11:28;27.18;33.79
67572;SHT31;54397;47.506;19.158;2022-07-06T17:14:50;27.02;34.26
67572;SHT31;54397;47.506;19.158;2022-07-06T17:18:14;26.90;34.30
67572;SHT31;54397;47.506;19.158;2022-07-06T17:21:36;26.98;34.67
67572;SHT31;54397;47.506;19.158;2022-07-06T17:25:00;26.88;33.91
67572;SHT31;54397;47.506;19.158;2022-07-06T17:28:22;26.76;34.35
67572;SHT31;54397;47.506;19.158;2022-07-06T17:31:44;26.70;34.69
67572;SHT31;54397;47.506;19.158;2022-07-06T17:35:09;26.70;34.78
67572;SHT31;54397;47.506;19.158;2022-07-06T17:38:30;26.65;34.13
67572;SHT31;54397;47.506;19.158;2022-07-06T17:41:52;26.51;33.00
67572;SHT31;54397;47.506;19.158;2022-07-06T17:45:15;26.49;32.52
67572;SHT31;54397;47.506;19.158;2022-07-06T17:48:37;26.43;33.66
67572;SHT31;54397;47.506;19.158;2022-07-06T17:51:59;26.41;32.80
67572;SHT31;54397;47.506;19.158;2022-07-06T17:55:20;26.47;34.43
67572;SHT31;54397;47.506;19.158;2022-07-06T17:58:45;26.43;33.36
67572;SHT31;54397;47.506;19.158;2022-07-06T18:02:06;26.46;34.42
67572;SHT31;54397;47.506;19.158;2022-07-06T18:05:32;26.40;33.87
67572;SHT31;54397;47.506;19.158;2022-07-06T18:08:53;26.36;34.25
67572;SHT31;54397;47.506;19.158;2022-07-06T18:12:18;26.36;31.79
67572;SHT31;54397;47.506;19.158;2022-07-06T18:15:39;26.29;32.78
67572;SHT31;54397;47.506;19.158;2022-07-06T18:19:03;26.15;32.89
67572;SHT31;54397;47.506;19.158;2022-07-06T18:22:30;26.16;34.39
67572;SHT31;54397;47.506;19.158;2022-07-06T18:25:52;26.16;31.85
67572;SHT31;54397;47.506;19.158;2022-07-06T18:29:18;26.05;32.26
67572;SHT31;54397;47.506;19.158;2022-07-06T18:32:39;26.08;34.31
67572;SHT31;54397;47.506;19.158;2022-07-06T18:36:01;26.08;34.34
67572;SHT31;54397;47.506;19.158;2022-07-06T18:39:25;26.02;33.27
67572;SHT31;54397;47.506;19.158;2022-07-06T18:42:49;25.82;32.78
67572;SHT31;54397;47.506;19.158;2022-07-06T18:46:11;25.74;34.78
67572;SHT31;54397;47.506;19.158;2022-07-06T18:49:32;25.71;35.31
67572;SHT31;54397;47.506;19.158;2022-07-06T18:52:54;25.84;35.34
67572;SHT31;54397;47.506;19.158;2022-07-06T18:56:16;25.92;35.35
67572;SHT31;54397;47.506;19.158;2022-07-06T18:59:40;25.95;35.39
67572;SHT31;54397;47.506;19.158;2022-07-06T19:03:04;25.99;35.65
67572;SHT31;54397;47.506;19.158;2022-07-06T19:06:25;25.93;36.00
67572;SHT31;54397;47.506;19.158;2022-07-06T19:09:49;25.93;35.94
67572;SHT31;54397;47.506;19.158;2022-07-06T19:13:11;25.88;36.16
67572;SHT31;54397;47.506;19.158;2022-07-06T19:16:38;25.86;36.28
67572;SHT31;54397;47.506;19.158;2022-07-06T19:20:02;25.80;36.23
67572;SHT31;54397;47.506;19.158;2022-07-06T19:23:23;25.78;36.81
67572;SHT31;54397;47.506;19.158;2022-07-06T19:26:45;25.77;36.89
67572;SHT31;54397;47.506;19.158;2022-07-06T19:30:08;25.78;37.14
67572;SHT31;54397;47.506;19.158;2022-07-06T19:33:29;25.72;37.04
67572;SHT31;54397;47.506;19.158;2022-07-06T19:36:51;25.68;37.31
67572;SHT31;54397;47.506;19.158;2022-07-06T19:40:14;25.62;37.23
67572;SHT31;54397;47.506;19.158;2022-07-06T19:43:38;25.60;37.69
67572;SHT31;54397;47.506;19.158;2022-07-06T19:47:02;25.61;37.53
67572;SHT31;54397;47.506;19.158;2022-07-06T19:50:27;25.55;37.82
67572;SHT31;54397;47.506;19.158;2022-07-06T19:53:51;25.51;37.64
67572;SHT31;54397;47.506;19.158;2022-07-06T19:57:13;25.41;37.96
67572;SHT31;54397;47.506;19.158;2022-07-06T20:00:35;25.40;37.95
67572;SHT31;54397;47.506;19.158;2022-07-06T20:03:59;25.30;38.27
67572;SHT31;54397;47.506;19.158;2022-07-06T20:07:21;25.17;38.81
67572;SHT31;54397;47.506;19.158;2022-07-06T20:10:43;25.16;38.84
67572;SHT31;54397;47.506;19.158;2022-07-06T20:14:04;25.00;39.24
67572;SHT31;54397;47.506;19.158;2022-07-06T20:17:26;24.93;39.25
67572;SHT31;54397;47.506;19.158;2022-07-06T20:20:50;24.97;39.86
67572;SHT31;54397;47.506;19.158;2022-07-06T20:24:12;24.90;39.69
67572;SHT31;54397;47.506;19.158;2022-07-06T20:27:34;24.83;40.12
67572;SHT31;54397;47.506;19.158;2022-07-06T20:31:01;24.78;40.33
67572;SHT31;54397;47.506;19.158;2022-07-06T20:34:23;24.90;40.26
67572;SHT31;54397;47.506;19.158;2022-07-06T20:37:44;24.99;39.95
67572;SHT31;54397;47.506;19.158;2022-07-06T20:41:06;25.03;39.77
67572;SHT31;54397;47.506;19.158;2022-07-06T20:44:28;25.07;39.79
67572;SHT31;54397;47.506;19.158;2022-07-06T20:47:50;25.03;39.60
67572;SHT31;54397;47.506;19.158;2022-07-06T20:51:12;24.95;39.23
67572;SHT31;54397;47.506;19.158;2022-07-06T20:54:33;24.82;40.01
67572;SHT31;54397;47.506;19.158;2022-07-06T20:58:02;24.64;40.24
67572;SHT31;54397;47.506;19.158;2022-07-06T21:01:26;24.49;40.35
67572;SHT31;54397;47.506;19.158;2022-07-06T21:04:51;24.40;40.32
67572;SHT31;54397;47.506;19.158;2022-07-06T21:08:17;24.35;40.95
67572;SHT31;54397;47.506;19.158;2022-07-06T21:11:41;24.44;40.90
67572;SHT31;54397;47.506;19.158;2022-07-06T21:15:05;24.37;41.00
67572;SHT31;54397;47.506;19.158;2022-07-06T21:18:27;24.40;41.18